Time;durP1;ratioP1;P1;durP2;ratioP2;P2;SDS_P1;SDS_P2;PMS_P1;PMS_P2;Temp;Humidity;BMP_temperature;BMP_pressure;BME280_temperature;BME280_humidity;BME280_pressure;Samples;Min_cycle;Max_cycle;Signal;HPM_P1;HPM_P2
2024/04/10 00:00:58;;;;;;;12.32;2.63;;;10.90;99.90;;;;;;5525453;26;20395;-80
2024/04/10 00:03:23;;;;;;;7.88;1.95;;;10.80;99.90;;;;;;5526522;25;20018;-80
2024/04/10 00:06:03;;;;;;;9.43;2.20;;;10.80;99.90;;;;;;5525439;25;20009;-80
2024/04/10 00:08:30;;;;;;;12.43;2.67;;;10.80;99.90;;;;;;5526021;25;20022;-80
2024/04/10 00:10:56;;;;;;;11.43;2.80;;;10.80;99.90;;;;;;5527320;25;20466;-81
2024/04/10 00:13:21;;;;;;;11.82;2.55;;;10.80;99.90;;;;;;5526077;25;20004;-79
2024/04/10 00:16:05;;;;;;;11.50;3.15;;;10.70;99.90;;;;;;5526879;25;19998;-79
2024/04/10 00:18:32;;;;;;;13.68;2.75;;;10.70;99.90;;;;;;5525948;25;19994;-79
2024/04/10 00:21:01;;;;;;;14.85;2.75;;;10.70;99.90;;;;;;5525458;26;20446;-80
2024/04/10 00:23:27;;;;;;;14.38;2.38;;;10.70;99.90;;;;;;5523869;25;20329;-79
2024/04/10 00:25:58;;;;;;;11.63;2.22;;;10.60;99.90;;;;;;5524445;25;19997;-80
2024/04/10 00:28:25;;;;;;;12.18;2.63;;;10.60;99.90;;;;;;5526760;25;20021;-79
2024/04/10 00:30:51;;;;;;;12.35;2.35;;;10.60;99.90;;;;;;5526389;25;20005;-79
2024/04/10 00:33:18;;;;;;;7.50;2.40;;;10.60;99.90;;;;;;5525556;26;19993;-79
2024/04/10 00:35:54;;;;;;;12.95;2.80;;;10.50;99.90;;;;;;5525172;25;20001;-80
2024/04/10 00:38:20;;;;;;;13.55;2.85;;;10.50;99.90;;;;;;5527526;25;20008;-80
2024/04/10 00:40:53;;;;;;;14.52;2.75;;;10.50;99.90;;;;;;5525139;26;19994;-80
2024/04/10 00:43:19;;;;;;;11.93;3.03;;;10.50;99.90;;;;;;5526558;25;20001;-79
2024/04/10 00:45:52;;;;;;;12.88;2.65;;;10.40;99.90;;;;;;5525636;25;20004;-79
2024/04/10 00:48:18;;;;;;;14.10;3.25;;;10.40;99.90;;;;;;5526450;25;20439;-78
2024/04/10 00:50:43;;;;;;;11.07;2.80;;;10.40;99.90;;;;;;5525113;26;19998;-80
2024/04/10 00:53:09;;;;;;;13.68;2.30;;;10.40;99.90;;;;;;5526318;26;20046;-80
2024/04/10 00:55:35;;;;;;;12.30;2.55;;;10.40;99.90;;;;;;5525446;26;20005;-80
2024/04/10 00:58:01;;;;;;;11.52;2.60;;;10.40;99.90;;;;;;5526553;25;20316;-80
2024/04/10 01:00:28;;;;;;;13.27;2.40;;;10.30;99.90;;;;;;5523045;25;20466;-80
2024/04/10 01:02:54;;;;;;;14.73;2.85;;;10.40;99.90;;;;;;5524995;25;19998;-80
2024/04/10 01:05:19;;;;;;;11.40;2.17;;;10.30;99.90;;;;;;5525164;25;20008;-80
2024/04/10 01:07:45;;;;;;;13.38;2.88;;;10.30;99.90;;;;;;5525805;26;20396;-79
2024/04/10 01:10:11;;;;;;;10.85;2.53;;;10.30;99.90;;;;;;5525003;25;20026;-80
2024/04/10 01:12:39;;;;;;;15.60;2.67;;;10.20;99.90;;;;;;5526344;26;20005;-80
2024/04/10 01:15:06;;;;;;;11.18;2.28;;;10.20;99.90;;;;;;5525186;25;20020;-80
2024/04/10 01:17:32;;;;;;;12.00;2.40;;;10.20;99.90;;;;;;5525995;25;19993;-79
2024/04/10 01:19:58;;;;;;;13.18;3.03;;;10.20;99.90;;;;;;5525825;25;20004;-80
2024/04/10 01:22:23;;;;;;;17.40;3.38;;;10.20;99.90;;;;;;5525486;26;20331;-80
2024/04/10 01:24:51;;;;;;;11.35;2.28;;;10.20;99.90;;;;;;5525869;25;20042;-80
2024/04/10 01:27:17;;;;;;;9.20;2.33;;;10.20;99.90;;;;;;5525801;25;19997;-80
2024/04/10 01:29:43;;;;;;;10.43;2.42;;;10.20;99.90;;;;;;5523390;26;20335;-80
2024/04/10 01:32:08;;;;;;;11.60;2.80;;;10.20;99.90;;;;;;5525837;25;19993;-80
2024/04/10 01:34:34;;;;;;;11.32;2.88;;;10.20;99.90;;;;;;5525565;25;20010;-80
2024/04/10 01:37:00;;;;;;;10.77;2.70;;;10.30;99.90;;;;;;5525793;26;20009;-81
2024/04/10 01:39:26;;;;;;;12.82;2.55;;;10.30;99.90;;;;;;5525834;26;20116;-80
2024/04/10 01:41:52;;;;;;;7.75;2.10;;;10.30;99.90;;;;;;5525784;25;20001;-80
2024/04/10 01:44:17;;;;;;;14.63;2.92;;;10.40;99.90;;;;;;5525637;25;20065;-80
2024/04/10 01:46:43;;;;;;;10.48;2.42;;;10.40;99.90;;;;;;5525840;26;20005;-79
2024/04/10 01:49:09;;;;;;;14.05;2.70;;;10.50;99.90;;;;;;5522660;25;20461;-79
2024/04/10 01:51:35;;;;;;;10.07;2.22;;;10.50;99.90;;;;;;5525113;25;20004;-79
2024/04/10 01:54:01;;;;;;;10.25;2.55;;;10.50;99.90;;;;;;5524704;25;20032;-79
2024/04/10 01:56:26;;;;;;;11.05;2.90;;;10.50;99.90;;;;;;5525696;25;19997;-81
2024/04/10 01:58:52;;;;;;;11.93;2.75;;;10.40;99.90;;;;;;5523840;25;20012;-79
2024/04/10 02:01:17;;;;;;;9.98;3.33;;;10.40;99.90;;;;;;5525797;26;20455;-79
2024/04/10 02:03:43;;;;;;;10.85;3.28;;;10.40;99.90;;;;;;5523315;25;20004;-79
2024/04/10 02:06:09;;;;;;;11.18;3.03;;;10.40;99.90;;;;;;5524693;25;19997;-79
2024/04/10 02:08:35;;;;;;;6.90;2.88;;;10.40;99.90;;;;;;5525310;26;20408;-79
2024/04/10 02:11:19;;;;;;;12.18;2.92;;;10.30;99.90;;;;;;5524406;25;20458;-79
2024/04/10 02:13:46;;;;;;;12.43;3.10;;;10.40;99.90;;;;;;5524659;25;20019;-79
2024/04/10 02:16:11;;;;;;;7.30;2.65;;;10.40;99.90;;;;;;5525455;25;20038;-79
2024/04/10 02:18:37;;;;;;;9.45;3.17;;;10.40;99.90;;;;;;5524567;26;20096;-79
2024/04/10 02:21:02;;;;;;;10.73;3.20;;;10.40;99.90;;;;;;5524821;25;20438;-79
2024/04/10 02:23:28;;;;;;;13.95;3.20;;;10.40;99.90;;;;;;5524810;25;20072;-80
2024/04/10 02:25:54;;;;;;;10.23;3.30;;;10.40;99.90;;;;;;5524418;25;20012;-79
2024/04/10 02:28:19;;;;;;;10.10;2.70;;;10.30;99.90;;;;;;5524713;25;20450;-79
2024/04/10 02:30:45;;;;;;;7.07;2.63;;;10.30;99.90;;;;;;5524366;25;20001;-79
2024/04/10 02:33:11;;;;;;;11.48;3.20;;;10.30;99.90;;;;;;5524817;26;20005;-79
2024/04/10 02:35:36;;;;;;;10.05;2.90;;;10.30;99.90;;;;;;5523933;26;20005;-79
2024/04/10 02:38:03;;;;;;;8.02;2.60;;;10.30;99.90;;;;;;5524591;26;20439;-79
2024/04/10 02:40:29;;;;;;;8.48;2.85;;;10.30;99.90;;;;;;5523361;25;19997;-80
2024/04/10 02:43:05;;;;;;;11.13;3.03;;;10.30;99.90;;;;;;5524503;25;20073;-80
2024/04/10 02:45:31;;;;;;;9.18;3.03;;;10.30;99.90;;;;;;5523817;25;19993;-79
2024/04/10 02:47:57;;;;;;;12.75;3.78;;;10.40;99.90;;;;;;5524306;25;20061;-79
2024/04/10 02:50:22;;;;;;;11.80;3.22;;;10.30;99.90;;;;;;5523801;26;19994;-79
2024/04/10 02:52:48;;;;;;;11.52;3.35;;;10.30;99.90;;;;;;5524769;25;20009;-79
2024/04/10 02:55:14;;;;;;;10.27;3.25;;;10.30;99.90;;;;;;5521830;26;19998;-79
2024/04/10 02:57:39;;;;;;;10.10;2.83;;;10.30;99.90;;;;;;5524949;25;20116;-79
2024/04/10 03:00:08;;;;;;;12.98;3.53;;;10.30;99.90;;;;;;5523044;25;20421;-79
2024/04/10 03:02:33;;;;;;;11.13;3.05;;;10.30;99.90;;;;;;5524746;25;20009;-79
2024/04/10 03:04:59;;;;;;;9.57;2.60;;;10.30;99.90;;;;;;5522540;25;20466;-79
2024/04/10 03:07:25;;;;;;;14.48;3.78;;;10.20;99.90;;;;;;5524437;25;19993;-79
2024/04/10 03:09:51;;;;;;;10.20;3.38;;;10.20;99.90;;;;;;5522884;26;20466;-79
2024/04/10 03:12:16;;;;;;;10.32;2.90;;;10.20;99.90;;;;;;5523096;25;19986;-80
2024/04/10 03:14:45;;;;;;;8.65;2.30;;;10.20;99.90;;;;;;5523493;25;19993;-79
2024/04/10 03:17:16;;;;;;;13.77;3.30;;;10.20;99.90;;;;;;5527984;25;19994;-79
2024/04/10 03:19:41;;;;;;;8.30;2.63;;;10.20;99.90;;;;;;5526327;25;19993;-80
2024/04/10 03:22:08;;;;;;;10.32;2.97;;;10.20;99.90;;;;;;5527578;25;20009;-80
2024/04/10 03:24:34;;;;;;;10.38;3.00;;;10.20;99.90;;;;;;5526212;25;19993;-80
2024/04/10 03:27:00;;;;;;;8.77;2.75;;;10.20;99.90;;;;;;5527069;25;19997;-80
2024/04/10 03:29:26;;;;;;;11.35;2.53;;;10.20;99.90;;;;;;5527071;26;20408;-79
2024/04/10 03:31:54;;;;;;;12.48;3.10;;;10.20;99.90;;;;;;5527250;25;20044;-79
2024/04/10 03:34:19;;;;;;;11.20;2.55;;;10.30;99.90;;;;;;5527071;25;20483;-80
2024/04/10 03:36:45;;;;;;;12.65;3.40;;;10.30;99.90;;;;;;5525096;25;20001;-80
2024/04/10 03:39:11;;;;;;;8.70;3.00;;;10.30;99.90;;;;;;5526703;25;20447;-79
2024/04/10 03:41:37;;;;;;;7.95;3.05;;;10.30;99.90;;;;;;5525120;26;20041;-80
2024/04/10 03:44:05;;;;;;;9.48;2.70;;;10.30;99.90;;;;;;5527035;26;20469;-79
2024/04/10 03:46:32;;;;;;;11.95;3.45;;;10.30;99.90;;;;;;5525064;26;20038;-79
2024/04/10 03:48:58;;;;;;;10.65;3.08;;;10.30;99.90;;;;;;5527640;25;20173;-79
2024/04/10 03:51:24;;;;;;;9.48;2.88;;;10.30;99.90;;;;;;5528050;25;20029;-78
2024/04/10 03:53:50;;;;;;;7.95;2.67;;;10.30;99.90;;;;;;5526273;26;20078;-79
2024/04/10 03:56:15;;;;;;;10.25;3.30;;;10.30;99.90;;;;;;5526147;25;19997;-79
2024/04/10 03:58:41;;;;;;;18.75;4.13;;;10.30;99.90;;;;;;5527360;25;20460;-79
2024/04/10 04:01:07;;;;;;;12.02;3.40;;;10.30;99.90;;;;;;5525661;26;20326;-79
2024/04/10 04:03:38;;;;;;;10.93;3.00;;;10.30;99.90;;;;;;5527628;25;19994;-79
2024/04/10 04:06:04;;;;;;;9.18;2.80;;;10.30;99.90;;;;;;5526179;25;20427;-80
2024/04/10 04:08:31;;;;;;;11.90;3.33;;;10.30;99.90;;;;;;5525083;25;20006;-79
2024/04/10 04:10:57;;;;;;;13.45;3.65;;;10.30;99.90;;;;;;5524763;26;20016;-79
2024/04/10 04:13:23;;;;;;;10.98;3.50;;;10.30;99.90;;;;;;5526575;25;20029;-79
2024/04/10 04:15:49;;;;;;;10.95;3.03;;;10.30;99.90;;;;;;5526875;26;19994;-79
2024/04/10 04:18:15;;;;;;;11.40;2.85;;;10.30;99.90;;;;;;5524938;26;20449;-79
2024/04/10 04:20:41;;;;;;;9.95;2.67;;;10.30;99.90;;;;;;5524268;26;19993;-79
2024/04/10 04:23:07;;;;;;;11.15;3.50;;;10.30;99.90;;;;;;5526508;25;19993;-79
2024/04/10 04:25:34;;;;;;;10.90;2.53;;;10.30;99.90;;;;;;5526870;25;20005;-79
2024/04/10 04:28:00;;;;;;;10.73;3.13;;;10.30;99.90;;;;;;5525202;25;20033;-79
2024/04/10 04:30:27;;;;;;;11.55;3.47;;;10.30;99.90;;;;;;5526552;25;20021;-79
2024/04/10 04:32:53;;;;;;;14.65;3.10;;;10.30;99.90;;;;;;5526646;25;19997;-79
2024/04/10 04:35:20;;;;;;;12.77;3.10;;;10.30;99.90;;;;;;5526464;25;20443;-80
2024/04/10 04:37:53;;;;;;;9.23;2.90;;;10.30;99.90;;;;;;5526375;25;20005;-78
2024/04/10 04:40:20;;;;;;;15.25;2.83;;;10.30;99.90;;;;;;5526644;25;19993;-78
2024/04/10 04:42:45;;;;;;;13.00;3.03;;;10.30;99.90;;;;;;5526121;25;20016;-79
2024/04/10 04:45:14;;;;;;;11.15;2.47;;;10.30;99.90;;;;;;5525591;26;20001;-78
2024/04/10 04:47:40;;;;;;;10.48;2.60;;;10.20;99.90;;;;;;5526260;26;20466;-78
2024/04/10 04:50:08;;;;;;;12.63;2.88;;;10.20;99.90;;;;;;5525525;25;20008;-79
2024/04/10 04:52:34;;;;;;;11.77;2.80;;;10.20;99.90;;;;;;5526875;25;19993;-78
2024/04/10 04:55:00;;;;;;;11.52;3.00;;;10.20;99.90;;;;;;5525502;25;20326;-79
2024/04/10 04:57:25;;;;;;;10.90;2.42;;;10.20;99.90;;;;;;5526968;25;20504;-79
2024/04/10 04:59:51;;;;;;;8.88;2.70;;;10.20;99.90;;;;;;5524975;25;20334;-79
2024/04/10 05:02:17;;;;;;;14.52;3.38;;;10.10;99.90;;;;;;5524263;25;19997;-78
2024/04/10 05:04:58;;;;;;;10.80;2.65;;;10.10;99.90;;;;;;5525200;26;20006;-79
2024/04/10 05:07:24;;;;;;;10.65;2.53;;;10.20;99.90;;;;;;5527018;25;20008;-78
2024/04/10 05:09:53;;;;;;;13.02;2.75;;;10.20;99.90;;;;;;5524763;25;20008;-79
2024/04/10 05:12:19;;;;;;;13.85;3.38;;;10.10;99.90;;;;;;5524712;26;19994;-79
2024/04/10 05:14:49;;;;;;;11.07;2.67;;;10.20;99.90;;;;;;5524747;25;20022;-79
2024/04/10 05:17:15;;;;;;;8.43;2.15;;;10.20;99.90;;;;;;5526463;25;19997;-79
2024/04/10 05:19:40;;;;;;;11.63;2.47;;;10.10;99.90;;;;;;5525261;26;20004;-79
2024/04/10 05:22:06;;;;;;;9.13;2.78;;;10.10;99.90;;;;;;5523948;26;20005;-79
2024/04/10 05:24:32;;;;;;;12.50;2.47;;;10.20;99.90;;;;;;5522826;25;20335;-78
2024/04/10 05:26:57;;;;;;;8.32;2.53;;;10.10;99.90;;;;;;5526352;25;20371;-79
2024/04/10 05:29:23;;;;;;;16.58;3.20;;;10.20;99.90;;;;;;5523615;26;19997;-79
2024/04/10 05:31:48;;;;;;;12.05;2.85;;;10.10;99.90;;;;;;5525272;26;20395;-79
2024/04/10 05:34:17;;;;;;;10.38;3.10;;;10.10;99.90;;;;;;5526203;25;19997;-79
2024/04/10 05:36:42;;;;;;;14.02;3.20;;;10.20;99.90;;;;;;5524497;26;19997;-79
2024/04/10 05:39:08;;;;;;;13.27;3.08;;;10.20;99.90;;;;;;5525767;25;20005;-79
2024/04/10 05:41:33;;;;;;;10.60;3.30;;;10.20;99.90;;;;;;5522631;25;20021;-79
2024/04/10 05:43:59;;;;;;;14.52;2.97;;;10.20;99.90;;;;;;5526420;25;20383;-80
2024/04/10 05:46:26;;;;;;;11.38;2.58;;;10.20;99.90;;;;;;5524744;26;19998;-79
2024/04/10 05:48:52;;;;;;;13.10;3.05;;;10.30;99.90;;;;;;5525592;25;20009;-80
2024/04/10 05:51:17;;;;;;;13.68;2.78;;;10.30;99.90;;;;;;5524581;25;20399;-79
2024/04/10 05:53:43;;;;;;;18.83;3.42;;;10.30;99.90;;;;;;5525602;26;19994;-79
2024/04/10 05:56:10;;;;;;;9.88;2.83;;;10.30;99.90;;;;;;5524413;26;20438;-79
2024/04/10 05:58:36;;;;;;;10.02;2.30;;;10.30;99.90;;;;;;5526206;25;19997;-79
2024/04/10 06:01:07;;;;;;;12.15;2.30;;;10.30;99.90;;;;;;5522381;26;20008;-79
2024/04/10 06:03:32;;;;;;;10.48;2.90;;;10.30;99.90;;;;;;5525659;25;20004;-79
2024/04/10 06:06:05;;;;;;;10.57;2.70;;;10.30;99.90;;;;;;5524203;25;19993;-79
2024/04/10 06:08:31;;;;;;;8.95;3.08;;;10.30;99.90;;;;;;5525847;25;19997;-80
2024/04/10 06:10:57;;;;;;;13.52;2.97;;;10.30;99.90;;;;;;5524536;25;20085;-79
2024/04/10 06:13:22;;;;;;;9.60;2.78;;;10.30;99.90;;;;;;5523471;25;20358;-79
2024/04/10 06:16:00;;;;;;;12.00;2.53;;;10.40;99.90;;;;;;5523878;25;20007;-79
2024/04/10 06:18:29;;;;;;;13.65;2.90;;;10.30;99.90;;;;;;5524097;26;20004;-79
2024/04/10 06:21:02;;;;;;;15.93;3.10;;;10.30;99.90;;;;;;5524251;25;20042;-79
2024/04/10 06:23:29;;;;;;;10.95;3.22;;;10.30;99.90;;;;;;5523092;25;19998;-79
2024/04/10 06:25:55;;;;;;;15.25;3.05;;;10.40;99.90;;;;;;5523250;26;20034;-79
2024/04/10 06:28:21;;;;;;;14.45;2.88;;;10.30;99.90;;;;;;5522806;26;19997;-79
2024/04/10 06:30:47;;;;;;;13.85;2.67;;;10.40;99.90;;;;;;5524492;25;19997;-79
2024/04/10 06:33:16;;;;;;;11.85;2.95;;;10.40;99.90;;;;;;5524396;25;19994;-79
2024/04/10 06:35:41;;;;;;;13.30;3.00;;;10.40;99.90;;;;;;5522472;25;20004;-79
2024/04/10 06:38:07;;;;;;;9.85;3.03;;;10.50;99.90;;;;;;5524215;25;19993;-79
2024/04/10 06:40:33;;;;;;;8.80;2.90;;;10.50;99.90;;;;;;5524585;25;20009;-79
2024/04/10 06:42:58;;;;;;;13.38;3.15;;;10.60;99.90;;;;;;5524278;26;20017;-79
2024/04/10 06:45:24;;;;;;;12.52;3.40;;;10.60;99.90;;;;;;5524440;26;19997;-79
2024/04/10 06:47:50;;;;;;;11.05;2.88;;;10.60;99.90;;;;;;5524303;26;20008;-79
2024/04/10 06:50:15;;;;;;;11.63;2.40;;;10.60;99.90;;;;;;5525574;26;19997;-79
2024/04/10 06:52:41;;;;;;;13.25;3.50;;;10.60;99.90;;;;;;5528160;26;20005;-79
2024/04/10 06:55:07;;;;;;;11.18;2.88;;;10.60;99.90;;;;;;5527034;26;20017;-79
2024/04/10 06:57:33;;;;;;;12.80;2.83;;;10.70;99.90;;;;;;5528325;26;20007;-80
2024/04/10 07:00:02;;;;;;;10.35;2.80;;;10.70;99.90;;;;;;5526604;25;19994;-79
2024/04/10 07:02:28;;;;;;;11.25;2.90;;;10.70;99.90;;;;;;5528621;25;19994;-79
2024/04/10 07:04:54;;;;;;;11.20;3.03;;;10.70;99.90;;;;;;5527354;25;20066;-79
2024/04/10 07:07:20;;;;;;;11.82;2.80;;;10.70;99.90;;;;;;5528235;25;20009;-80
2024/04/10 07:09:46;;;;;;;7.32;2.13;;;10.80;99.90;;;;;;5526979;25;19994;-79
2024/04/10 07:12:12;;;;;;;10.90;2.60;;;10.80;99.90;;;;;;5528894;25;20009;-79
2024/04/10 07:14:40;;;;;;;10.10;2.80;;;10.80;99.90;;;;;;5527703;26;20005;-79
2024/04/10 07:17:05;;;;;;;11.13;2.63;;;10.90;99.90;;;;;;5526885;25;20454;-79
2024/04/10 07:19:34;;;;;;;10.23;2.85;;;10.90;99.90;;;;;;5527644;25;20000;-79
2024/04/10 07:22:04;;;;;;;12.50;2.90;;;10.90;99.90;;;;;;5527452;25;20466;-79
2024/04/10 07:24:30;;;;;;;10.98;2.83;;;10.90;99.90;;;;;;5524968;26;20461;-79
2024/04/10 07:26:56;;;;;;;10.88;2.97;;;10.90;99.90;;;;;;5526567;25;19997;-79
2024/04/10 07:29:21;;;;;;;10.80;2.70;;;11.00;99.90;;;;;;5525532;25;19993;-79
2024/04/10 07:31:47;;;;;;;11.88;2.70;;;11.00;99.90;;;;;;5526874;26;20008;-79
2024/04/10 07:34:14;;;;;;;10.23;2.50;;;11.00;99.90;;;;;;5527707;26;20005;-79
2024/04/10 07:36:41;;;;;;;16.20;2.90;;;11.00;99.90;;;;;;5526464;25;19993;-79
2024/04/10 07:39:08;;;;;;;10.82;2.92;;;11.10;99.90;;;;;;5526609;25;20065;-79
2024/04/10 07:41:34;;;;;;;11.55;2.97;;;11.10;99.90;;;;;;5526208;25;19997;-79
2024/04/10 07:44:00;;;;;;;10.15;2.70;;;11.20;99.90;;;;;;5527721;25;20458;-79
2024/04/10 07:46:26;;;;;;;8.45;2.72;;;11.20;99.90;;;;;;5526414;25;20065;-79
2024/04/10 07:48:54;;;;;;;13.57;3.22;;;11.20;99.90;;;;;;5527733;25;20008;-79
2024/04/10 07:51:21;;;;;;;9.07;2.55;;;11.40;99.90;;;;;;5526746;25;20009;-79
2024/04/10 07:53:47;;;;;;;7.93;2.47;;;11.40;99.90;;;;;;5527765;25;20069;-79
2024/04/10 07:56:14;;;;;;;10.00;2.70;;;11.50;99.90;;;;;;5526667;25;20009;-79
2024/04/10 07:58:40;;;;;;;14.80;2.53;;;11.60;99.90;;;;;;5525023;25;19993;-78
2024/04/10 08:01:06;;;;;;;15.13;2.45;;;11.60;99.90;;;;;;5524640;25;20033;-79
2024/04/10 08:03:32;;;;;;;10.57;2.75;;;11.70;99.90;;;;;;5527198;25;20004;-79
2024/04/10 08:06:00;;;;;;;10.55;2.40;;;11.80;99.90;;;;;;5526492;25;20430;-79
2024/04/10 08:08:27;;;;;;;14.27;2.95;;;11.90;99.90;;;;;;5527647;25;20360;-79
2024/04/10 08:11:03;;;;;;;10.77;2.63;;;12.00;99.90;;;;;;5526184;25;20349;-80
2024/04/10 08:13:30;;;;;;;13.40;2.20;;;12.10;99.90;;;;;;5527162;25;19997;-79
2024/04/10 08:16:07;;;;;;;14.52;2.85;;;12.30;99.90;;;;;;5526243;25;20360;-79
2024/04/10 08:18:35;;;;;;;11.48;2.50;;;12.40;99.90;;;;;;5527954;25;20036;-79
2024/04/10 08:21:06;;;;;;;13.27;2.80;;;12.40;99.90;;;;;;5525886;25;20013;-79
2024/04/10 08:23:37;;;;;;;12.13;2.72;;;12.50;99.90;;;;;;5525268;25;20001;-79
2024/04/10 08:26:13;;;;;;;10.40;2.50;;;12.50;99.90;;;;;;5525737;25;20066;-79
2024/04/10 08:28:45;;;;;;;13.45;2.50;;;12.60;99.90;;;;;;5526579;25;20008;-78
2024/04/10 08:31:12;;;;;;;11.15;2.53;;;12.70;99.90;;;;;;5526402;25;20008;-79
2024/04/10 08:33:37;;;;;;;10.32;2.83;;;12.80;99.90;;;;;;5526339;25;20005;-79
2024/04/10 08:36:05;;;;;;;12.07;2.55;;;12.90;99.90;;;;;;5525523;26;19994;-79
2024/04/10 08:38:31;;;;;;;15.02;2.88;;;13.00;99.90;;;;;;5524723;26;20008;-78
2024/04/10 08:40:58;;;;;;;10.77;2.47;;;13.10;99.90;;;;;;5526170;25;20319;-79
2024/04/10 08:43:26;;;;;;;10.55;2.53;;;13.10;99.90;;;;;;5526550;25;20016;-81
2024/04/10 08:45:52;;;;;;;10.55;2.15;;;13.20;99.90;;;;;;5525421;25;20008;-79
2024/04/10 08:48:18;;;;;;;8.88;2.17;;;13.20;99.90;;;;;;5525339;25;19990;-79
2024/04/10 08:50:46;;;;;;;8.88;2.30;;;13.20;99.90;;;;;;5526649;25;19993;-79
2024/04/10 08:53:13;;;;;;;11.80;2.65;;;13.20;99.90;;;;;;5524348;26;20451;-79
2024/04/10 08:55:40;;;;;;;8.05;2.10;;;13.20;99.90;;;;;;5525695;25;20367;-79
2024/04/10 08:58:06;;;;;;;9.32;2.25;;;13.20;99.90;;;;;;5526361;25;19989;-79
2024/04/10 09:00:32;;;;;;;11.32;2.60;;;13.30;99.90;;;;;;5524123;26;19989;-79
2024/04/10 09:02:58;;;;;;;9.52;3.30;;;13.40;99.90;;;;;;5526193;25;20004;-79
2024/04/10 09:05:29;;;;;;;14.93;2.83;;;13.50;99.90;;;;;;5526150;25;20431;-79
2024/04/10 09:08:02;;;;;;;8.73;2.45;;;13.50;99.90;;;;;;5526257;25;19997;-80
2024/04/10 09:10:28;;;;;;;12.75;2.92;;;13.60;99.90;;;;;;5526657;25;20589;-80
2024/04/10 09:13:08;;;;;;;14.68;3.40;;;13.60;99.90;;;;;;5525446;25;19997;-80
2024/04/10 09:15:37;;;;;;;10.57;2.03;;;13.60;99.90;;;;;;5525604;25;20299;-80
2024/04/10 09:18:05;;;;;;;6.13;2.05;;;13.60;99.90;;;;;;5526031;25;20016;-80
2024/04/10 09:20:31;;;;;;;7.13;2.17;;;13.70;99.90;;;;;;5524591;25;20008;-80
2024/04/10 09:23:06;;;;;;;8.15;2.00;;;13.90;99.90;;;;;;5526794;25;20466;-80
2024/04/10 09:25:34;;;;;;;5.05;1.90;;;13.90;99.90;;;;;;5525347;25;20373;-80
2024/04/10 09:28:02;;;;;;;11.60;2.75;;;14.00;99.90;;;;;;5526299;25;20012;-80
2024/04/10 09:30:29;;;;;;;10.95;2.30;;;14.10;99.90;;;;;;5524827;25;20458;-80
2024/04/10 09:32:56;;;;;;;7.95;2.42;;;14.10;99.90;;;;;;5526960;25;19998;-79
2024/04/10 09:35:24;;;;;;;8.77;2.38;;;14.20;99.90;;;;;;5524808;25;19993;-80
2024/04/10 09:37:51;;;;;;;11.15;2.63;;;14.20;99.90;;;;;;5526686;25;20005;-80
2024/04/10 09:40:22;;;;;;;9.70;1.90;;;14.20;99.90;;;;;;5524998;25;20330;-80
2024/04/10 09:42:49;;;;;;;10.80;2.10;;;14.30;99.90;;;;;;5526376;25;20006;-80
2024/04/10 09:45:20;;;;;;;9.27;2.10;;;14.30;99.90;;;;;;5524721;25;20012;-80
2024/04/10 09:47:46;;;;;;;5.90;2.25;;;14.20;99.90;;;;;;5526610;25;20093;-80
2024/04/10 09:50:18;;;;;;;8.88;1.88;;;14.20;99.90;;;;;;5524984;25;19997;-81
2024/04/10 09:52:47;;;;;;;8.40;2.47;;;14.10;99.90;;;;;;5525778;25;20346;-80
2024/04/10 09:55:14;;;;;;;6.45;2.00;;;14.00;99.90;;;;;;5525257;25;19998;-80
2024/04/10 09:57:42;;;;;;;6.30;2.35;;;14.00;99.90;;;;;;5523970;26;20008;-81
2024/04/10 10:00:09;;;;;;;7.20;1.98;;;14.10;99.90;;;;;;5524896;25;19997;-81
2024/04/10 10:02:35;;;;;;;11.45;2.78;;;14.10;99.90;;;;;;5523174;26;20069;-80
2024/04/10 10:05:00;;;;;;;7.38;1.83;;;14.20;99.90;;;;;;5525264;25;20185;-80
2024/04/10 10:07:26;;;;;;;5.63;1.65;;;14.40;99.90;;;;;;5524125;26;20442;-79
2024/04/10 10:10:03;;;;;;;5.30;1.50;;;14.50;99.90;;;;;;5525044;25;19993;-80
2024/04/10 10:12:29;;;;;;;11.55;2.63;;;14.60;99.90;;;;;;5524389;25;20004;-80
2024/04/10 10:15:08;;;;;;;13.35;2.08;;;14.70;99.90;;;;;;5526040;25;19993;-80
2024/04/10 10:17:34;;;;;;;5.95;1.58;;;14.80;99.90;;;;;;5523983;25;20026;-80
2024/04/10 10:19:59;;;;;;;7.85;1.60;;;14.90;99.90;;;;;;5525616;26;19994;-80
2024/04/10 10:22:25;;;;;;;6.45;1.30;;;15.00;99.90;;;;;;5524108;26;20466;-81
2024/04/10 10:24:58;;;;;;;8.50;1.80;;;15.00;99.90;;;;;;5524381;26;20004;-80
2024/04/10 10:27:26;;;;;;;4.63;1.27;;;14.90;99.90;;;;;;5523845;25;20069;-79
2024/04/10 10:30:09;;;;;;;7.78;1.40;;;15.00;99.90;;;;;;5523177;25;20038;-80
2024/04/10 10:32:35;;;;;;;3.78;1.25;;;15.00;99.90;;;;;;5522258;26;20241;-80
2024/04/10 10:35:08;;;;;;;7.82;1.85;;;15.10;99.90;;;;;;5527353;25;20601;-80
2024/04/10 10:37:34;;;;;;;6.00;1.55;;;15.10;99.90;;;;;;5523954;25;20005;-80
2024/04/10 10:40:01;;;;;;;6.70;1.65;;;15.20;99.90;;;;;;5524984;25;20346;-80
2024/04/10 10:42:27;;;;;;;7.30;1.42;;;15.30;99.90;;;;;;5523391;25;19994;-80
2024/04/10 10:45:08;;;;;;;4.97;1.25;;;15.30;99.90;;;;;;5524132;25;20455;-80
2024/04/10 10:47:40;;;;;;;6.05;1.40;;;15.30;99.90;;;;;;5524064;25;20001;-80
2024/04/10 10:50:06;;;;;;;8.57;1.20;;;15.30;99.90;;;;;;5524344;25;20521;-80
2024/04/10 10:52:32;;;;;;;5.45;1.65;;;15.40;99.90;;;;;;5524239;25;19993;-80
2024/04/10 10:55:04;;;;;;;4.68;1.35;;;15.30;99.80;;;;;;5524194;25;19993;-80
2024/04/10 10:57:30;;;;;;;3.83;1.20;;;15.30;99.70;;;;;;5523906;25;20013;-80
2024/04/10 10:59:58;;;;;;;7.20;1.55;;;15.40;99.70;;;;;;5524102;26;20443;-79
2024/04/10 11:02:23;;;;;;;5.00;1.25;;;15.40;99.30;;;;;;5523936;25;20022;-80
2024/04/10 11:04:51;;;;;;;5.53;1.40;;;15.50;99.30;;;;;;5524132;25;19993;-80
2024/04/10 11:07:17;;;;;;;4.90;1.30;;;15.50;99.20;;;;;;5523716;25;19993;-80
2024/04/10 11:09:42;;;;;;;5.28;1.38;;;15.60;99.00;;;;;;5524226;25;20004;-80
2024/04/10 11:12:08;;;;;;;9.35;1.13;;;15.70;98.80;;;;;;5523942;26;20519;-80
2024/04/10 11:14:34;;;;;;;5.28;1.15;;;15.70;98.50;;;;;;5523679;26;20066;-80
2024/04/10 11:17:00;;;;;;;6.43;1.35;;;15.80;98.40;;;;;;5523392;25;20009;-80
2024/04/10 11:19:27;;;;;;;6.38;1.30;;;15.80;98.10;;;;;;5523746;25;20331;-80
2024/04/10 11:21:52;;;;;;;7.18;1.42;;;15.70;97.40;;;;;;5523851;25;19997;-79
2024/04/10 11:24:20;;;;;;;4.75;1.40;;;15.70;97.40;;;;;;5524124;25;20008;-80
2024/04/10 11:26:46;;;;;;;3.97;1.40;;;15.80;97.70;;;;;;5523025;25;20065;-80
2024/04/10 11:29:11;;;;;;;4.45;1.05;;;16.00;97.40;;;;;;5524125;26;20333;-80
2024/04/10 11:31:37;;;;;;;5.88;1.38;;;15.80;96.30;;;;;;5522434;26;20008;-79
2024/04/10 11:34:03;;;;;;;7.72;1.25;;;15.60;95.90;;;;;;5523634;25;19993;-80
2024/04/10 11:36:29;;;;;;;6.47;1.20;;;15.50;95.80;;;;;;5524258;25;20008;-80
2024/04/10 11:38:54;;;;;;;3.90;1.30;;;15.50;95.70;;;;;;5528169;25;20009;-79
2024/04/10 11:41:20;;;;;;;5.45;1.08;;;15.60;95.80;;;;;;5526452;26;20004;-79
2024/04/10 11:43:46;;;;;;;3.65;1.23;;;15.70;95.90;;;;;;5527177;26;20003;-80
2024/04/10 11:46:11;;;;;;;4.82;1.20;;;15.80;95.40;;;;;;5526253;26;20030;-80
2024/04/10 11:48:38;;;;;;;4.15;1.30;;;15.80;95.40;;;;;;5527907;26;19993;-80
2024/04/10 11:51:04;;;;;;;5.28;1.27;;;15.90;95.50;;;;;;5526777;25;19997;-80
2024/04/10 11:53:32;;;;;;;6.10;1.40;;;16.10;94.90;;;;;;5528141;25;20028;-80
2024/04/10 11:55:57;;;;;;;4.97;1.02;;;16.10;94.30;;;;;;5524765;26;19998;-79
2024/04/10 11:58:23;;;;;;;5.68;1.00;;;16.00;94.00;;;;;;5525719;26;20069;-79
2024/04/10 12:00:50;;;;;;;5.80;1.23;;;16.00;94.00;;;;;;5525911;25;19998;-80
2024/04/10 12:03:16;;;;;;;2.95;1.10;;;16.10;94.00;;;;;;5527054;25;19998;-79
2024/04/10 12:05:41;;;;;;;3.95;1.30;;;16.10;93.40;;;;;;5527883;25;19993;-79
2024/04/10 12:08:07;;;;;;;4.68;1.10;;;16.10;93.10;;;;;;5527122;26;19994;-80
2024/04/10 12:10:33;;;;;;;6.70;1.45;;;16.20;92.80;;;;;;5527922;25;20009;-80
2024/04/10 12:12:59;;;;;;;6.57;1.40;;;16.20;92.50;;;;;;5526224;25;20000;-80
2024/04/10 12:15:25;;;;;;;3.72;1.10;;;16.20;92.40;;;;;;5528190;25;20112;-79
2024/04/10 12:17:52;;;;;;;3.47;1.10;;;16.30;92.70;;;;;;5526245;25;19993;-80
2024/04/10 12:20:18;;;;;;;6.85;1.40;;;16.40;92.80;;;;;;5528118;25;20025;-79
2024/04/10 12:22:45;;;;;;;5.28;1.25;;;16.40;92.60;;;;;;5525768;25;20069;-79
2024/04/10 12:25:11;;;;;;;5.00;1.20;;;16.50;92.50;;;;;;5526883;25;19999;-80
2024/04/10 12:27:37;;;;;;;4.10;1.05;;;16.60;92.60;;;;;;5526137;26;20342;-79
2024/04/10 12:30:03;;;;;;;4.80;1.40;;;16.70;91.90;;;;;;5527675;25;19993;-79
2024/04/10 12:32:29;;;;;;;7.97;1.40;;;16.70;92.20;;;;;;5523861;25;19998;-79
2024/04/10 12:40:25;;;;;;;4.93;1.40;;;16.80;91.20;;;;;;5527631;25;20038;-80
2024/04/10 12:42:51;;;;;;;6.80;1.73;;;16.80;91.30;;;;;;5523911;25;20001;-80
2024/04/10 12:45:16;;;;;;;3.30;1.33;;;16.80;91.10;;;;;;5527684;26;19997;-80